AEE1234 LOWW-EDDF
Flight info
| Callsign | AEE1234 |
|---|---|
| Flight time | 1h 3m |
| Altitude | 30000 |
| Route | LUGEM2B/16 LUGEM DCT SUBEN T161 DEBHI DEBHI1B |
| Aircraft | A320/M-SDE3FGHIRWY/LB1 |
Departure
| Time | 2026-05-04 19:14 |
|---|---|
| Airport | Vienna International Airport (LOWW) |
Arrival
| Time | 2026-05-04 20:18 |
|---|---|
| Airport | Frankfurt Main Airport (EDDF) |
| Time | Latitude | Longitude | Altitude | Speed | Heading |
|---|---|---|---|---|---|
| 2026-05-04 18:38 | 48.11974 | 16.55842 | 620 ft | 0 kts | 294° |
| 2026-05-04 18:58 | 48.11967 | 16.55865 | 626 ft | 4 kts | 290° |
| 2026-05-04 18:59 | 48.11959 | 16.55904 | 622 ft | 4 kts | 276° |
| 2026-05-04 18:59 | 48.11961 | 16.55940 | 622 ft | 4 kts | 239° |
| 2026-05-04 18:59 | 48.11971 | 16.55956 | 625 ft | 1 kts | 205° |
| 2026-05-04 18:59 | 48.11974 | 16.55958 | 625 ft | 0 kts | 205° |
| 2026-05-04 19:03 | 48.11928 | 16.55926 | 618 ft | 13 kts | 205° |
| 2026-05-04 19:03 | 48.11838 | 16.55862 | 608 ft | 16 kts | 205° |
| 2026-05-04 19:03 | 48.11780 | 16.55821 | 609 ft | 1 kts | 205° |
| 2026-05-04 19:04 | 48.11756 | 16.55805 | 618 ft | 0 kts | 201° |
| 2026-05-04 19:04 | 48.11729 | 16.55772 | 616 ft | 10 kts | 232° |
| 2026-05-04 19:04 | 48.11743 | 16.55643 | 617 ft | 15 kts | 295° |
| 2026-05-04 19:05 | 48.11794 | 16.55481 | 613 ft | 20 kts | 295° |
| 2026-05-04 19:05 | 48.11860 | 16.55270 | 614 ft | 25 kts | 296° |
| 2026-05-04 19:05 | 48.11946 | 16.55010 | 611 ft | 31 kts | 296° |
| 2026-05-04 19:05 | 48.12043 | 16.54712 | 617 ft | 29 kts | 295° |
| 2026-05-04 19:06 | 48.12132 | 16.54430 | 612 ft | 30 kts | 295° |
| 2026-05-04 19:06 | 48.12169 | 16.54312 | 611 ft | 12 kts | 295° |
| 2026-05-04 19:06 | 48.12207 | 16.54194 | 609 ft | 14 kts | 296° |
| 2026-05-04 19:06 | 48.12260 | 16.54034 | 614 ft | 20 kts | 296° |
| 2026-05-04 19:07 | 48.12328 | 16.53839 | 613 ft | 22 kts | 297° |
| 2026-05-04 19:07 | 48.12380 | 16.53649 | 615 ft | 15 kts | 269° |
| 2026-05-04 19:07 | 48.12349 | 16.53572 | 615 ft | 0 kts | 212° |
| 2026-05-04 19:12 | 48.12340 | 16.53564 | 609 ft | 8 kts | 209° |
| 2026-05-04 19:12 | 48.12201 | 16.53586 | 620 ft | 0 kts | 116° |
| 2026-05-04 19:13 | 48.12197 | 16.53598 | 615 ft | 8 kts | 116° |
| 2026-05-04 19:13 | 48.12099 | 16.53898 | 620 ft | 68 kts | 115° |
| 2026-05-04 19:13 | 48.12037 | 16.54090 | 620 ft | 85 kts | 116° |
| 2026-05-04 19:14 | 48.11725 | 16.55008 | 627 ft | 138 kts | 119° |
| 2026-05-04 19:14 | 48.11206 | 16.56567 | 907 ft | 179 kts | 117° |
| 2026-05-04 19:14 | 48.10659 | 16.58355 | 1683 ft | 191 kts | 120° |
| 2026-05-04 19:14 | 48.10077 | 16.60149 | 2690 ft | 191 kts | 123° |
| 2026-05-04 19:15 | 48.09463 | 16.61978 | 3197 ft | 203 kts | 122° |
| 2026-05-04 19:15 | 48.08800 | 16.63875 | 3751 ft | 211 kts | 130° |
| 2026-05-04 19:15 | 48.07771 | 16.65394 | 4442 ft | 209 kts | 155° |
| 2026-05-04 19:15 | 48.06409 | 16.66136 | 4882 ft | 209 kts | 177° |
| 2026-05-04 19:16 | 48.04989 | 16.65939 | 5042 ft | 206 kts | 201° |
| 2026-05-04 19:16 | 48.03760 | 16.64837 | 5713 ft | 209 kts | 223° |
| 2026-05-04 19:16 | 48.02912 | 16.63051 | 6441 ft | 216 kts | 248° |
| 2026-05-04 19:16 | 48.02663 | 16.60811 | 7185 ft | 224 kts | 272° |
| 2026-05-04 19:17 | 48.02963 | 16.58478 | 7797 ft | 239 kts | 279° |
| 2026-05-04 19:17 | 48.03336 | 16.55923 | 8199 ft | 264 kts | 279° |
| 2026-05-04 19:17 | 48.03600 | 16.54104 | 8512 ft | 276 kts | 279° |
| 2026-05-04 19:17 | 48.04015 | 16.51255 | 9270 ft | 284 kts | 279° |
| 2026-05-04 19:18 | 48.04441 | 16.48342 | 10079 ft | 289 kts | 279° |
| 2026-05-04 19:18 | 48.04879 | 16.45322 | 10478 ft | 310 kts | 279° |
| 2026-05-04 19:18 | 48.05507 | 16.40948 | 10914 ft | 335 kts | 279° |
| 2026-05-04 19:18 | 48.05839 | 16.38630 | 11354 ft | 340 kts | 279° |
| 2026-05-04 19:19 | 48.06337 | 16.35148 | 12093 ft | 344 kts | 279° |
| 2026-05-04 19:19 | 48.06838 | 16.31633 | 12882 ft | 348 kts | 279° |
| 2026-05-04 19:19 | 48.07339 | 16.28121 | 13668 ft | 351 kts | 279° |
| 2026-05-04 19:19 | 48.07831 | 16.24531 | 14379 ft | 355 kts | 278° |
| 2026-05-04 19:20 | 48.08279 | 16.20841 | 15078 ft | 357 kts | 277° |
| 2026-05-04 19:20 | 48.08691 | 16.17167 | 15779 ft | 360 kts | 277° |
| 2026-05-04 19:20 | 48.09088 | 16.13499 | 16439 ft | 363 kts | 277° |
| 2026-05-04 19:20 | 48.09492 | 16.09749 | 17120 ft | 367 kts | 277° |
| 2026-05-04 19:21 | 48.09911 | 16.05917 | 17807 ft | 370 kts | 277° |
| 2026-05-04 19:21 | 48.10326 | 16.02156 | 18447 ft | 373 kts | 277° |
| 2026-05-04 19:21 | 48.10763 | 15.98258 | 19068 ft | 377 kts | 278° |
| 2026-05-04 19:21 | 48.11199 | 15.94384 | 19703 ft | 380 kts | 278° |
| 2026-05-04 19:22 | 48.11640 | 15.90458 | 20354 ft | 384 kts | 278° |
| 2026-05-04 19:22 | 48.12076 | 15.86556 | 20998 ft | 387 kts | 278° |
| 2026-05-04 19:22 | 48.12520 | 15.82564 | 21623 ft | 391 kts | 278° |
| 2026-05-04 19:22 | 48.12967 | 15.78536 | 22269 ft | 394 kts | 278° |
| 2026-05-04 19:23 | 48.13415 | 15.74480 | 22882 ft | 397 kts | 279° |
| 2026-05-04 19:23 | 48.13861 | 15.70390 | 23515 ft | 399 kts | 279° |
| 2026-05-04 19:23 | 48.14309 | 15.66274 | 23821 ft | 401 kts | 279° |
| 2026-05-04 19:23 | 48.14759 | 15.62135 | 23911 ft | 403 kts | 279° |
| 2026-05-04 19:24 | 48.15213 | 15.57977 | 23932 ft | 405 kts | 279° |
| 2026-05-04 19:24 | 48.15664 | 15.53818 | 23937 ft | 406 kts | 279° |
| 2026-05-04 19:24 | 48.16112 | 15.49648 | 23925 ft | 406 kts | 278° |
| 2026-05-04 19:24 | 48.16563 | 15.45436 | 23941 ft | 413 kts | 278° |
| 2026-05-04 19:25 | 48.17022 | 15.41117 | 24086 ft | 425 kts | 278° |
| 2026-05-04 19:25 | 48.17499 | 15.36769 | 24741 ft | 421 kts | 279° |
| 2026-05-04 19:25 | 48.18042 | 15.32484 | 25457 ft | 418 kts | 281° |
| 2026-05-04 19:25 | 48.18639 | 15.28223 | 26149 ft | 416 kts | 282° |
| 2026-05-04 19:26 | 48.19252 | 15.24007 | 26826 ft | 414 kts | 282° |
| 2026-05-04 19:26 | 48.19863 | 15.19794 | 27494 ft | 412 kts | 281° |
| 2026-05-04 19:26 | 48.20460 | 15.15599 | 28176 ft | 410 kts | 281° |
| 2026-05-04 19:26 | 48.21041 | 15.11437 | 28858 ft | 409 kts | 281° |
| 2026-05-04 19:27 | 48.21603 | 15.07324 | 29515 ft | 407 kts | 280° |
| 2026-05-04 19:27 | 48.22164 | 15.03154 | 29866 ft | 408 kts | 280° |
| 2026-05-04 19:27 | 48.22721 | 14.98993 | 29915 ft | 407 kts | 280° |
| 2026-05-04 19:28 | 48.23825 | 14.90668 | 29912 ft | 406 kts | 280° |
| 2026-05-04 19:28 | 48.24931 | 14.82357 | 29903 ft | 406 kts | 280° |
| 2026-05-04 19:29 | 48.26019 | 14.74106 | 29904 ft | 405 kts | 280° |
| 2026-05-04 19:29 | 48.27126 | 14.65699 | 29901 ft | 417 kts | 280° |
| 2026-05-04 19:29 | 48.27689 | 14.61415 | 29899 ft | 430 kts | 280° |
| 2026-05-04 19:30 | 48.28275 | 14.56946 | 29899 ft | 442 kts | 280° |
| 2026-05-04 19:30 | 48.29476 | 14.47695 | 29897 ft | 460 kts | 279° |
| 2026-05-04 19:31 | 48.30699 | 14.38196 | 29893 ft | 464 kts | 280° |
| 2026-05-04 19:31 | 48.31923 | 14.28669 | 29898 ft | 465 kts | 279° |
| 2026-05-04 19:32 | 48.33146 | 14.19115 | 29893 ft | 466 kts | 279° |
| 2026-05-04 19:32 | 48.34361 | 14.09539 | 29895 ft | 466 kts | 279° |
| 2026-05-04 19:33 | 48.35561 | 13.99956 | 29905 ft | 466 kts | 279° |
| 2026-05-04 19:33 | 48.36740 | 13.90439 | 29907 ft | 466 kts | 279° |
| 2026-05-04 19:34 | 48.37929 | 13.80840 | 29901 ft | 467 kts | 279° |
| 2026-05-04 19:34 | 48.39119 | 13.71214 | 29886 ft | 467 kts | 279° |
| 2026-05-04 19:35 | 48.40298 | 13.61592 | 29885 ft | 468 kts | 278° |
| 2026-05-04 19:35 | 48.41464 | 13.51943 | 29884 ft | 468 kts | 278° |
| 2026-05-04 19:36 | 48.42604 | 13.42369 | 29915 ft | 468 kts | 278° |
| 2026-05-04 19:36 | 48.43915 | 13.32775 | 29904 ft | 469 kts | 286° |
| 2026-05-04 19:37 | 48.46312 | 13.23607 | 29909 ft | 470 kts | 290° |
| 2026-05-04 19:37 | 48.48734 | 13.14439 | 29901 ft | 470 kts | 289° |
| 2026-05-04 19:38 | 48.51136 | 13.05259 | 29929 ft | 470 kts | 289° |
| 2026-05-04 19:38 | 48.52301 | 13.00792 | 29902 ft | 453 kts | 289° |
| 2026-05-04 19:38 | 48.53459 | 12.96356 | 29908 ft | 446 kts | 289° |
| 2026-05-04 19:39 | 48.55705 | 12.87744 | 29907 ft | 443 kts | 289° |
| 2026-05-04 19:39 | 48.57951 | 12.79084 | 29906 ft | 442 kts | 289° |
| 2026-05-04 19:40 | 48.60185 | 12.70438 | 29911 ft | 442 kts | 289° |
| 2026-05-04 19:40 | 48.62414 | 12.61788 | 29905 ft | 441 kts | 289° |
| 2026-05-04 19:41 | 48.64635 | 12.53140 | 29901 ft | 441 kts | 289° |
| 2026-05-04 19:41 | 48.66851 | 12.44494 | 29902 ft | 441 kts | 289° |
| 2026-05-04 19:42 | 48.69043 | 12.35888 | 29905 ft | 441 kts | 289° |
| 2026-05-04 19:42 | 48.71238 | 12.27232 | 29917 ft | 440 kts | 289° |
| 2026-05-04 19:43 | 48.73424 | 12.18561 | 29920 ft | 440 kts | 289° |
| 2026-05-04 19:43 | 48.75270 | 12.09771 | 29928 ft | 437 kts | 278° |
| 2026-05-04 19:43 | 48.75753 | 12.05246 | 29665 ft | 433 kts | 277° |
| 2026-05-04 19:44 | 48.76234 | 12.00735 | 28682 ft | 435 kts | 277° |
| 2026-05-04 19:44 | 48.76724 | 11.96178 | 28132 ft | 438 kts | 277° |
| 2026-05-04 19:44 | 48.77218 | 11.91601 | 27928 ft | 441 kts | 277° |
| 2026-05-04 19:44 | 48.77714 | 11.87009 | 27941 ft | 442 kts | 277° |
| 2026-05-04 19:45 | 48.78211 | 11.82405 | 27944 ft | 443 kts | 277° |
| 2026-05-04 19:45 | 48.78707 | 11.77791 | 27943 ft | 443 kts | 277° |
| 2026-05-04 19:45 | 48.79197 | 11.73186 | 27945 ft | 443 kts | 277° |
| 2026-05-04 19:45 | 48.79681 | 11.68555 | 27946 ft | 443 kts | 277° |
| 2026-05-04 19:46 | 48.80163 | 11.63940 | 27947 ft | 443 kts | 277° |
| 2026-05-04 19:46 | 48.80643 | 11.59376 | 27948 ft | 444 kts | 277° |
| 2026-05-04 19:46 | 48.81127 | 11.54758 | 27948 ft | 444 kts | 277° |
| 2026-05-04 19:46 | 48.81607 | 11.50129 | 27947 ft | 443 kts | 277° |
| 2026-05-04 19:47 | 48.82083 | 11.45510 | 27945 ft | 443 kts | 277° |
| 2026-05-04 19:47 | 48.82555 | 11.40880 | 27954 ft | 443 kts | 276° |
| 2026-05-04 19:47 | 48.83022 | 11.36262 | 27953 ft | 443 kts | 276° |
| 2026-05-04 19:47 | 48.83489 | 11.31644 | 27950 ft | 443 kts | 276° |
| 2026-05-04 19:48 | 48.84119 | 11.27054 | 27943 ft | 445 kts | 285° |
| 2026-05-04 19:48 | 48.85302 | 11.22700 | 27944 ft | 449 kts | 296° |
| 2026-05-04 19:48 | 48.87025 | 11.18737 | 27942 ft | 453 kts | 307° |
| 2026-05-04 19:48 | 48.89234 | 11.15292 | 27942 ft | 456 kts | 315° |
| 2026-05-04 19:49 | 48.91580 | 11.12040 | 27941 ft | 456 kts | 315° |
| 2026-05-04 19:49 | 48.93896 | 11.08828 | 27949 ft | 456 kts | 315° |
| 2026-05-04 19:49 | 48.96240 | 11.05564 | 27951 ft | 456 kts | 315° |
| 2026-05-04 19:49 | 48.98582 | 11.02290 | 27965 ft | 457 kts | 314° |
| 2026-05-04 19:50 | 49.00919 | 10.99009 | 27961 ft | 457 kts | 314° |
| 2026-05-04 19:50 | 49.03257 | 10.95721 | 27980 ft | 457 kts | 314° |
| 2026-05-04 19:50 | 49.05598 | 10.92427 | 27977 ft | 457 kts | 314° |
| 2026-05-04 19:50 | 49.07936 | 10.89132 | 27987 ft | 457 kts | 314° |
| 2026-05-04 19:51 | 49.10252 | 10.85864 | 27975 ft | 457 kts | 314° |
| 2026-05-04 19:51 | 49.12583 | 10.82573 | 27988 ft | 457 kts | 314° |
| 2026-05-04 19:51 | 49.14920 | 10.79266 | 27714 ft | 459 kts | 314° |
| 2026-05-04 19:51 | 49.17263 | 10.75945 | 27441 ft | 459 kts | 314° |
| 2026-05-04 19:52 | 49.19606 | 10.72616 | 27184 ft | 459 kts | 314° |
| 2026-05-04 19:52 | 49.21906 | 10.69224 | 26903 ft | 459 kts | 312° |
| 2026-05-04 19:52 | 49.24155 | 10.65741 | 26661 ft | 460 kts | 311° |
| 2026-05-04 19:52 | 49.26364 | 10.62206 | 26411 ft | 460 kts | 310° |
| 2026-05-04 19:53 | 49.28560 | 10.58643 | 25881 ft | 460 kts | 310° |
| 2026-05-04 19:53 | 49.30732 | 10.55125 | 25323 ft | 461 kts | 310° |
| 2026-05-04 19:53 | 49.32951 | 10.51556 | 24750 ft | 463 kts | 310° |
| 2026-05-04 19:53 | 49.35162 | 10.48032 | 24340 ft | 451 kts | 310° |
| 2026-05-04 19:54 | 49.37094 | 10.44387 | 24199 ft | 426 kts | 302° |
| 2026-05-04 19:54 | 49.38753 | 10.40801 | 23876 ft | 402 kts | 302° |
| 2026-05-04 19:54 | 49.40347 | 10.37342 | 23184 ft | 392 kts | 302° |
| 2026-05-04 19:54 | 49.41911 | 10.33924 | 22530 ft | 391 kts | 302° |
| 2026-05-04 19:55 | 49.43474 | 10.30486 | 22074 ft | 390 kts | 302° |
| 2026-05-04 19:55 | 49.45018 | 10.27083 | 21683 ft | 386 kts | 302° |
| 2026-05-04 19:55 | 49.46545 | 10.23715 | 21292 ft | 382 kts | 302° |
| 2026-05-04 19:55 | 49.48061 | 10.20366 | 20906 ft | 380 kts | 302° |
| 2026-05-04 19:56 | 49.49565 | 10.17038 | 20520 ft | 378 kts | 301° |
| 2026-05-04 19:56 | 49.51059 | 10.13726 | 20126 ft | 376 kts | 302° |
| 2026-05-04 19:56 | 49.52527 | 10.10478 | 19761 ft | 374 kts | 302° |
| 2026-05-04 19:56 | 49.54011 | 10.07205 | 19375 ft | 371 kts | 302° |
| 2026-05-04 19:57 | 49.55483 | 10.03958 | 19005 ft | 369 kts | 302° |
| 2026-05-04 19:57 | 49.56946 | 10.00716 | 18629 ft | 367 kts | 302° |
| 2026-05-04 19:57 | 49.58395 | 9.97494 | 18253 ft | 365 kts | 302° |
| 2026-05-04 19:57 | 49.59838 | 9.94277 | 17844 ft | 363 kts | 302° |
| 2026-05-04 19:58 | 49.61272 | 9.91078 | 17499 ft | 363 kts | 302° |
| 2026-05-04 19:58 | 49.62703 | 9.87882 | 17109 ft | 362 kts | 302° |
| 2026-05-04 19:58 | 49.64130 | 9.84695 | 16739 ft | 360 kts | 302° |
| 2026-05-04 19:58 | 49.65548 | 9.81526 | 16372 ft | 357 kts | 302° |
| 2026-05-04 19:59 | 49.66957 | 9.78377 | 16009 ft | 355 kts | 302° |
| 2026-05-04 19:59 | 49.68356 | 9.75243 | 15653 ft | 353 kts | 302° |
| 2026-05-04 19:59 | 49.69747 | 9.72126 | 15290 ft | 351 kts | 302° |
| 2026-05-04 19:59 | 49.71107 | 9.69063 | 14936 ft | 349 kts | 301° |
| 2026-05-04 20:00 | 49.72475 | 9.65977 | 14583 ft | 347 kts | 301° |
| 2026-05-04 20:00 | 49.73836 | 9.62912 | 14232 ft | 345 kts | 301° |
| 2026-05-04 20:00 | 49.75191 | 9.59860 | 13883 ft | 343 kts | 301° |
| 2026-05-04 20:00 | 49.76538 | 9.56823 | 13508 ft | 341 kts | 301° |
| 2026-05-04 20:01 | 49.77874 | 9.53808 | 13149 ft | 339 kts | 301° |
| 2026-05-04 20:01 | 49.79191 | 9.50832 | 12810 ft | 339 kts | 301° |
| 2026-05-04 20:01 | 49.80520 | 9.47818 | 12468 ft | 338 kts | 301° |
| 2026-05-04 20:01 | 49.81840 | 9.44822 | 12127 ft | 334 kts | 301° |
| 2026-05-04 20:02 | 49.83143 | 9.41855 | 11790 ft | 332 kts | 301° |
| 2026-05-04 20:02 | 49.84438 | 9.38902 | 11438 ft | 330 kts | 301° |
| 2026-05-04 20:02 | 49.85722 | 9.35958 | 11094 ft | 328 kts | 300° |
| 2026-05-04 20:02 | 49.86677 | 9.32811 | 10843 ft | 322 kts | 284° |
| 2026-05-04 20:03 | 49.87313 | 9.29492 | 10593 ft | 318 kts | 283° |
| 2026-05-04 20:03 | 49.87934 | 9.26242 | 10342 ft | 310 kts | 283° |
| 2026-05-04 20:03 | 49.88537 | 9.23070 | 10105 ft | 303 kts | 283° |
| 2026-05-04 20:03 | 49.89127 | 9.19970 | 9898 ft | 295 kts | 283° |
| 2026-05-04 20:04 | 49.89697 | 9.16964 | 9766 ft | 286 kts | 283° |
| 2026-05-04 20:04 | 49.90250 | 9.14016 | 9627 ft | 283 kts | 283° |
| 2026-05-04 20:04 | 49.90793 | 9.11094 | 9498 ft | 282 kts | 283° |
| 2026-05-04 20:04 | 49.91329 | 9.08203 | 9372 ft | 283 kts | 282° |
| 2026-05-04 20:05 | 49.91877 | 9.05264 | 8817 ft | 281 kts | 283° |
| 2026-05-04 20:05 | 49.92419 | 9.02360 | 8306 ft | 278 kts | 283° |
| 2026-05-04 20:05 | 49.93044 | 8.99518 | 7811 ft | 279 kts | 292° |
| 2026-05-04 20:05 | 49.94047 | 8.96941 | 7348 ft | 281 kts | 305° |
| 2026-05-04 20:06 | 49.95409 | 8.94749 | 6906 ft | 282 kts | 318° |
| 2026-05-04 20:06 | 49.97051 | 8.93062 | 6493 ft | 285 kts | 332° |
| 2026-05-04 20:06 | 49.98903 | 8.91979 | 6072 ft | 289 kts | 345° |
| 2026-05-04 20:06 | 50.00903 | 8.91563 | 5639 ft | 292 kts | 359° |
| 2026-05-04 20:07 | 50.02884 | 8.92129 | 5199 ft | 292 kts | 27° |
| 2026-05-04 20:07 | 50.04376 | 8.94201 | 4780 ft | 290 kts | 59° |
| 2026-05-04 20:07 | 50.05183 | 8.97053 | 4344 ft | 289 kts | 74° |
| 2026-05-04 20:07 | 50.05674 | 9.00076 | 4019 ft | 285 kts | 78° |
| 2026-05-04 20:08 | 50.05955 | 9.02082 | 3989 ft | 275 kts | 78° |
| 2026-05-04 20:08 | 50.06381 | 9.04891 | 3995 ft | 268 kts | 76° |
| 2026-05-04 20:08 | 50.06873 | 9.07687 | 3997 ft | 268 kts | 74° |
| 2026-05-04 20:08 | 50.07423 | 9.10459 | 3996 ft | 268 kts | 72° |
| 2026-05-04 20:09 | 50.08017 | 9.13223 | 3993 ft | 268 kts | 71° |
| 2026-05-04 20:09 | 50.08740 | 9.15864 | 3995 ft | 265 kts | 56° |
| 2026-05-04 20:09 | 50.10077 | 9.17749 | 3992 ft | 255 kts | 26° |
| 2026-05-04 20:09 | 50.11737 | 9.18314 | 3990 ft | 239 kts | 355° |
| 2026-05-04 20:10 | 50.13260 | 9.17473 | 3998 ft | 234 kts | 321° |
| 2026-05-04 20:10 | 50.14240 | 9.15531 | 3998 ft | 233 kts | 291° |
| 2026-05-04 20:10 | 50.14759 | 9.13140 | 4002 ft | 233 kts | 285° |
| 2026-05-04 20:10 | 50.15197 | 9.10691 | 3997 ft | 234 kts | 284° |
| 2026-05-04 20:11 | 50.15470 | 9.08211 | 3995 ft | 233 kts | 266° |
| 2026-05-04 20:11 | 50.15109 | 9.05775 | 3999 ft | 232 kts | 249° |
| 2026-05-04 20:11 | 50.14552 | 9.03412 | 4000 ft | 232 kts | 249° |
| 2026-05-04 20:11 | 50.13999 | 9.01047 | 4000 ft | 232 kts | 249° |
| 2026-05-04 20:12 | 50.13446 | 8.98679 | 4003 ft | 232 kts | 249° |
| 2026-05-04 20:12 | 50.12893 | 8.96313 | 3997 ft | 232 kts | 249° |
| 2026-05-04 20:12 | 50.12338 | 8.93943 | 4001 ft | 232 kts | 249° |
| 2026-05-04 20:12 | 50.11803 | 8.91659 | 3995 ft | 219 kts | 249° |
| 2026-05-04 20:13 | 50.11299 | 8.89509 | 3994 ft | 203 kts | 249° |
| 2026-05-04 20:13 | 50.10832 | 8.87520 | 4025 ft | 192 kts | 249° |
| 2026-05-04 20:13 | 50.10379 | 8.85597 | 3912 ft | 190 kts | 249° |
| 2026-05-04 20:13 | 50.09921 | 8.83649 | 3705 ft | 189 kts | 249° |
| 2026-05-04 20:14 | 50.09474 | 8.81752 | 3474 ft | 188 kts | 249° |
| 2026-05-04 20:14 | 50.09024 | 8.79842 | 3228 ft | 188 kts | 250° |
| 2026-05-04 20:14 | 50.08574 | 8.77935 | 2973 ft | 188 kts | 250° |
| 2026-05-04 20:14 | 50.08126 | 8.76040 | 2722 ft | 180 kts | 250° |
| 2026-05-04 20:15 | 50.07719 | 8.74316 | 2513 ft | 158 kts | 250° |
| 2026-05-04 20:15 | 50.07354 | 8.72775 | 2300 ft | 147 kts | 251° |
| 2026-05-04 20:15 | 50.07013 | 8.71336 | 2101 ft | 143 kts | 251° |
| 2026-05-04 20:15 | 50.06672 | 8.69898 | 1888 ft | 140 kts | 251° |
| 2026-05-04 20:16 | 50.06332 | 8.68480 | 1731 ft | 141 kts | 251° |
| 2026-05-04 20:16 | 50.05998 | 8.67049 | 1493 ft | 140 kts | 251° |
| 2026-05-04 20:16 | 50.05668 | 8.65629 | 1345 ft | 140 kts | 251° |
| 2026-05-04 20:16 | 50.05335 | 8.64213 | 1129 ft | 139 kts | 251° |
| 2026-05-04 20:17 | 50.05008 | 8.62812 | 957 ft | 137 kts | 250° |
| 2026-05-04 20:17 | 50.04650 | 8.61436 | 799 ft | 136 kts | 249° |
| 2026-05-04 20:17 | 50.04350 | 8.60056 | 591 ft | 135 kts | 252° |
| 2026-05-04 20:17 | 50.04020 | 8.58694 | 397 ft | 134 kts | 250° |
| 2026-05-04 20:18 | 50.03789 | 8.57692 | 366 ft | 98 kts | 250° |
| 2026-05-04 20:18 | 50.03657 | 8.57120 | 356 ft | 11 kts | 248° |
| 2026-05-04 20:18 | 50.03601 | 8.56903 | 358 ft | 39 kts | 248° |
| 2026-05-04 20:18 | 50.03501 | 8.56514 | 355 ft | 35 kts | 249° |
| 2026-05-04 20:19 | 50.03441 | 8.56188 | 351 ft | 17 kts | 262° |
| 2026-05-04 20:19 | 50.03446 | 8.55982 | 351 ft | 12 kts | 276° |
| 2026-05-04 20:19 | 50.03447 | 8.55962 | 351 ft | 0 kts | 277° |
| 2026-05-04 20:20 | 50.03449 | 8.55940 | 354 ft | 9 kts | 277° |
| 2026-05-04 20:20 | 50.03469 | 8.55741 | 346 ft | 26 kts | 280° |
| 2026-05-04 20:20 | 50.03483 | 8.55460 | 345 ft | 27 kts | 261° |
| 2026-05-04 20:20 | 50.03423 | 8.55170 | 348 ft | 30 kts | 249° |
| 2026-05-04 20:21 | 50.03349 | 8.54860 | 336 ft | 28 kts | 250° |
| 2026-05-04 20:21 | 50.03291 | 8.54619 | 336 ft | 21 kts | 250° |
| 2026-05-04 20:21 | 50.03344 | 8.54464 | 337 ft | 0 kts | 343° |
| 2026-05-04 20:23 | 50.03347 | 8.54463 | 339 ft | 3 kts | 343° |
| 2026-05-04 20:23 | 50.03405 | 8.54433 | 339 ft | 13 kts | 339° |
| 2026-05-04 20:24 | 50.03506 | 8.54369 | 351 ft | 18 kts | 338° |
| 2026-05-04 20:24 | 50.03598 | 8.54316 | 348 ft | 9 kts | 339° |
| 2026-05-04 20:24 | 50.03637 | 8.54273 | 353 ft | 0 kts | 314° |
| 2026-05-04 20:24 | 50.03658 | 8.54246 | 342 ft | 8 kts | 336° |
| 2026-05-04 20:25 | 50.03707 | 8.54225 | 347 ft | 7 kts | 353° |
| 2026-05-04 20:25 | 50.03764 | 8.54233 | 345 ft | 9 kts | 25° |
| 2026-05-04 20:25 | 50.03792 | 8.54312 | 350 ft | 9 kts | 77° |
| 2026-05-04 20:25 | 50.03792 | 8.54315 | 350 ft | 0 kts | 76° |
| 2026-05-04 20:26 | 50.03823 | 8.54351 | 354 ft | 9 kts | 31° |
| 2026-05-04 20:26 | 50.03884 | 8.54434 | 349 ft | 14 kts | 66° |
| 2026-05-04 20:26 | 50.03917 | 8.54582 | 352 ft | 16 kts | 72° |
| 2026-05-04 20:27 | 50.03954 | 8.54741 | 358 ft | 8 kts | 70° |
| 2026-05-04 20:27 | 50.03957 | 8.54754 | 357 ft | 0 kts | 69° |
| 2026-05-04 20:27 | 50.03957 | 8.54755 | 357 ft | 0 kts | 69° |
| 2026-05-04 20:28 | 50.03963 | 8.54783 | 355 ft | 8 kts | 70° |
| 2026-05-04 20:28 | 50.03983 | 8.54877 | 355 ft | 10 kts | 77° |
| 2026-05-04 20:28 | 50.03962 | 8.54972 | 356 ft | 11 kts | 142° |
| 2026-05-04 20:29 | 50.03913 | 8.55005 | 354 ft | 1 kts | 160° |
| 2026-05-04 20:29 | 50.03876 | 8.55027 | 354 ft | 17 kts | 156° |
| 2026-05-04 20:29 | 50.03866 | 8.55194 | 357 ft | 18 kts | 69° |
| 2026-05-04 20:29 | 50.03914 | 8.55385 | 354 ft | 20 kts | 69° |
| 2026-05-04 20:30 | 50.03969 | 8.55608 | 358 ft | 24 kts | 69° |
| 2026-05-04 20:30 | 50.04028 | 8.55862 | 359 ft | 26 kts | 70° |
| 2026-05-04 20:30 | 50.04091 | 8.56134 | 356 ft | 25 kts | 70° |
| 2026-05-04 20:30 | 50.04146 | 8.56371 | 356 ft | 24 kts | 69° |
| 2026-05-04 20:31 | 50.04196 | 8.56581 | 356 ft | 17 kts | 70° |
| 2026-05-04 20:31 | 50.04226 | 8.56709 | 361 ft | 0 kts | 69° |
| 2026-05-04 20:31 | 50.04229 | 8.56721 | 360 ft | 2 kts | 69° |
| 2026-05-04 20:31 | 50.04236 | 8.56748 | 359 ft | 4 kts | 66° |
| 2026-05-04 20:32 | 50.04276 | 8.56801 | 359 ft | 11 kts | 28° |
| 2026-05-04 20:32 | 50.04350 | 8.56829 | 360 ft | 9 kts | 9° |
| 2026-05-04 20:32 | 50.04421 | 8.56846 | 360 ft | 12 kts | 8° |
| 2026-05-04 20:32 | 50.04515 | 8.56874 | 359 ft | 15 kts | 14° |
| 2026-05-04 20:33 | 50.04568 | 8.56878 | 358 ft | 8 kts | 336° |
| 2026-05-04 20:33 | 50.04590 | 8.56833 | 359 ft | 4 kts | 291° |
| 2026-05-04 20:33 | 50.04602 | 8.56792 | 364 ft | 0 kts | 295° |
| 2026-05-04 20:33 | 50.04605 | 8.56779 | 360 ft | 0 kts | 295° |